createdAt,value
2017-08-28T00:00:02.807Z,17.7
2017-08-28T00:15:03.390Z,17.6
2017-08-28T00:30:03.477Z,17.4
2017-08-28T00:45:03.208Z,17.2
2017-08-28T01:00:03.511Z,17.1
2017-08-28T01:15:03.231Z,17.3
2017-08-28T01:30:03.293Z,16.8
2017-08-28T01:45:03.020Z,17.1
2017-08-28T02:00:05.782Z,17.1
2017-08-28T02:15:03.784Z,16.9
2017-08-28T02:30:04.583Z,16.9
2017-08-28T02:45:03.628Z,16.9
2017-08-28T03:00:03.538Z,16.9
2017-08-28T03:15:03.819Z,16.9
2017-08-28T03:30:03.494Z,16.6
2017-08-28T03:45:03.112Z,16.4
2017-08-28T04:00:02.863Z,16.6
2017-08-28T04:15:04.982Z,16.5
2017-08-28T04:30:03.778Z,16.4
2017-08-28T04:45:03.741Z,16.2
2017-08-28T05:00:03.772Z,16.4
2017-08-28T05:15:03.597Z,16.5
2017-08-28T05:30:05.045Z,16.4
2017-08-28T05:45:03.907Z,16.6
2017-08-28T06:00:08.816Z,16.8
2017-08-28T06:15:04.195Z,17.3
2017-08-28T06:30:04.759Z,17.8
2017-08-28T06:45:04.221Z,17.8
2017-08-28T07:00:04.325Z,18.4
2017-08-28T07:15:03.494Z,18.9
2017-08-28T07:30:04.393Z,19.6
2017-08-28T07:45:04.913Z,20
2017-08-28T08:00:05.008Z,20.2
2017-08-28T08:15:04.626Z,20.4
2017-08-28T08:30:05.028Z,20.6
2017-08-28T08:45:04.827Z,20.7
2017-08-28T09:00:06.274Z,21.5
2017-08-28T09:15:03.446Z,21.8
2017-08-28T09:30:03.608Z,21.8
2017-08-28T09:45:04.453Z,21.9
2017-08-28T10:00:07.835Z,21.8
2017-08-28T10:15:03.352Z,22.5
2017-08-28T10:30:04.431Z,22.7
2017-08-28T10:45:04.156Z,22.8
2017-08-28T11:00:03.572Z,22.7
2017-08-28T11:15:04.193Z,22.8
2017-08-28T11:30:05.066Z,24.2
2017-08-28T11:45:04.497Z,25.1
2017-08-28T12:00:03.361Z,25.1
2017-08-28T12:15:04.214Z,25.7
2017-08-28T12:30:04.882Z,26.1
2017-08-28T12:45:04.096Z,26.4
2017-08-28T13:00:03.280Z,26.5
2017-08-28T13:15:03.809Z,28.1
2017-08-28T13:30:04.903Z,27.2
2017-08-28T13:45:04.678Z,27.8
2017-08-28T14:00:06.789Z,28.2
2017-08-28T14:15:03.978Z,27.1
2017-08-28T14:30:03.756Z,26.9
2017-08-28T14:45:03.674Z,27.4
2017-08-28T15:00:04.734Z,27
2017-08-28T15:15:04.385Z,27.1
2017-08-28T15:30:04.381Z,26.6
2017-08-28T15:45:03.422Z,25.2
2017-08-28T16:00:03.155Z,25.4
2017-08-28T16:15:03.912Z,24.9
2017-08-28T16:30:04.797Z,24.7
2017-08-28T16:45:03.407Z,24.1
2017-08-28T17:00:03.306Z,23.9
2017-08-28T17:15:03.270Z,23.1
2017-08-28T17:30:04.195Z,22.3
2017-08-28T17:45:04.340Z,22.1
2017-08-28T18:00:04.239Z,21.3
2017-08-28T18:15:03.490Z,20.8
2017-08-28T18:30:03.187Z,20.6
2017-08-28T18:45:02.738Z,20.4
2017-08-28T19:00:03.398Z,19.8
2017-08-28T19:15:02.969Z,19.4
2017-08-28T19:30:02.645Z,19.2
2017-08-28T19:45:03.292Z,18.9
2017-08-28T20:00:02.846Z,18.8
2017-08-28T20:15:03.541Z,18.6
2017-08-28T20:30:03.246Z,18.3
2017-08-28T20:45:02.837Z,18.2
2017-08-28T21:00:03.801Z,18
2017-08-28T21:15:02.528Z,17.9
2017-08-28T21:30:03.194Z,17.7
2017-08-28T21:45:02.769Z,17.5
2017-08-28T22:00:04.187Z,17.4
2017-08-28T22:15:02.759Z,17.3
2017-08-28T22:30:05.003Z,17.2
2017-08-28T22:45:02.597Z,17.1
2017-08-28T23:00:03.192Z,16.9
2017-08-28T23:15:02.774Z,16.9
2017-08-28T23:30:03.463Z,16.7
2017-08-28T23:45:03.076Z,16.6
